sensor_id;sensor_type;location;lat;lon;timestamp;P1;durP1;ratioP1;P2;durP2;ratioP2
2494;SDS011;1258;48.336;14.322;2023-11-21T00:01:45;2.17;;;1.20;;
2494;SDS011;1258;48.336;14.322;2023-11-21T00:04:12;1.90;;;1.30;;
2494;SDS011;1258;48.336;14.322;2023-11-21T00:06:40;2.30;;;1.10;;
2494;SDS011;1258;48.336;14.322;2023-11-21T00:09:09;1.90;;;1.20;;
2494;SDS011;1258;48.336;14.322;2023-11-21T00:11:38;3.10;;;1.43;;
2494;SDS011;1258;48.336;14.322;2023-11-21T00:14:05;3.10;;;1.47;;
2494;SDS011;1258;48.336;14.322;2023-11-21T00:16:33;1.90;;;1.20;;
2494;SDS011;1258;48.336;14.322;2023-11-21T00:19:00;2.00;;;1.50;;
2494;SDS011;1258;48.336;14.322;2023-11-21T00:21:27;4.53;;;2.90;;
2494;SDS011;1258;48.336;14.322;2023-11-21T00:23:54;1.70;;;1.40;;
2494;SDS011;1258;48.336;14.322;2023-11-21T00:26:23;2.90;;;1.73;;
2494;SDS011;1258;48.336;14.322;2023-11-21T00:28:50;2.80;;;1.50;;
2494;SDS011;1258;48.336;14.322;2023-11-21T00:31:17;2.90;;;1.90;;
2494;SDS011;1258;48.336;14.322;2023-11-21T00:33:44;2.53;;;1.40;;
2494;SDS011;1258;48.336;14.322;2023-11-21T00:36:11;2.43;;;1.90;;
2494;SDS011;1258;48.336;14.322;2023-11-21T00:38:38;2.20;;;1.37;;
2494;SDS011;1258;48.336;14.322;2023-11-21T00:41:05;2.80;;;1.50;;
2494;SDS011;1258;48.336;14.322;2023-11-21T00:43:34;2.00;;;1.30;;
2494;SDS011;1258;48.336;14.322;2023-11-21T00:46:03;3.73;;;1.70;;
2494;SDS011;1258;48.336;14.322;2023-11-21T00:48:32;2.57;;;1.57;;
2494;SDS011;1258;48.336;14.322;2023-11-21T00:50:59;2.50;;;1.20;;
2494;SDS011;1258;48.336;14.322;2023-11-21T00:53:26;2.03;;;1.10;;
2494;SDS011;1258;48.336;14.322;2023-11-21T00:55:53;1.87;;;1.30;;
2494;SDS011;1258;48.336;14.322;2023-11-21T00:58:22;2.40;;;1.10;;
2494;SDS011;1258;48.336;14.322;2023-11-21T01:00:50;2.33;;;1.27;;
2494;SDS011;1258;48.336;14.322;2023-11-21T01:03:18;4.03;;;1.57;;
2494;SDS011;1258;48.336;14.322;2023-11-21T01:05:45;1.90;;;1.30;;
2494;SDS011;1258;48.336;14.322;2023-11-21T01:08:12;2.80;;;1.40;;
2494;SDS011;1258;48.336;14.322;2023-11-21T01:10:39;2.13;;;1.30;;
2494;SDS011;1258;48.336;14.322;2023-11-21T01:13:06;3.03;;;1.40;;
2494;SDS011;1258;48.336;14.322;2023-11-21T01:15:33;2.30;;;1.70;;
2494;SDS011;1258;48.336;14.322;2023-11-21T01:18:02;2.83;;;1.80;;
2494;SDS011;1258;48.336;14.322;2023-11-21T01:20:30;2.57;;;1.80;;
2494;SDS011;1258;48.336;14.322;2023-11-21T01:22:57;2.13;;;1.43;;
2494;SDS011;1258;48.336;14.322;2023-11-21T01:25:24;3.17;;;1.70;;
2494;SDS011;1258;48.336;14.322;2023-11-21T01:27:52;2.63;;;1.50;;
2494;SDS011;1258;48.336;14.322;2023-11-21T01:30:19;2.20;;;1.50;;
2494;SDS011;1258;48.336;14.322;2023-11-21T01:32:47;2.30;;;1.53;;
2494;SDS011;1258;48.336;14.322;2023-11-21T01:35:15;2.40;;;1.50;;
2494;SDS011;1258;48.336;14.322;2023-11-21T01:37:42;1.97;;;1.30;;
2494;SDS011;1258;48.336;14.322;2023-11-21T01:40:10;2.37;;;1.40;;
2494;SDS011;1258;48.336;14.322;2023-11-21T01:42:39;2.97;;;1.37;;
2494;SDS011;1258;48.336;14.322;2023-11-21T01:45:06;1.57;;;0.90;;
2494;SDS011;1258;48.336;14.322;2023-11-21T01:47:34;1.97;;;1.23;;
2494;SDS011;1258;48.336;14.322;2023-11-21T01:50:02;1.60;;;1.10;;
2494;SDS011;1258;48.336;14.322;2023-11-21T01:52:32;1.37;;;1.07;;
2494;SDS011;1258;48.336;14.322;2023-11-21T01:55:00;1.60;;;1.10;;
2494;SDS011;1258;48.336;14.322;2023-11-21T01:57:28;1.73;;;1.00;;
2494;SDS011;1258;48.336;14.322;2023-11-21T01:59:56;1.73;;;1.10;;
2494;SDS011;1258;48.336;14.322;2023-11-21T02:02:25;2.83;;;1.90;;
2494;SDS011;1258;48.336;14.322;2023-11-21T02:04:52;1.40;;;1.10;;
2494;SDS011;1258;48.336;14.322;2023-11-21T02:07:19;1.77;;;0.90;;
2494;SDS011;1258;48.336;14.322;2023-11-21T02:09:50;2.40;;;0.93;;
2494;SDS011;1258;48.336;14.322;2023-11-21T02:12:17;1.83;;;1.30;;
2494;SDS011;1258;48.336;14.322;2023-11-21T02:14:44;1.80;;;1.20;;
2494;SDS011;1258;48.336;14.322;2023-11-21T02:17:11;1.43;;;1.10;;
2494;SDS011;1258;48.336;14.322;2023-11-21T02:19:38;1.60;;;1.10;;
2494;SDS011;1258;48.336;14.322;2023-11-21T02:22:05;1.83;;;1.07;;
2494;SDS011;1258;48.336;14.322;2023-11-21T02:24:34;3.60;;;1.40;;
2494;SDS011;1258;48.336;14.322;2023-11-21T02:27:02;4.90;;;1.63;;
2494;SDS011;1258;48.336;14.322;2023-11-21T02:29:29;1.70;;;1.10;;
2494;SDS011;1258;48.336;14.322;2023-11-21T02:31:56;3.40;;;2.20;;
2494;SDS011;1258;48.336;14.322;2023-11-21T02:34:25;2.40;;;1.60;;
2494;SDS011;1258;48.336;14.322;2023-11-21T02:36:52;1.50;;;1.10;;
2494;SDS011;1258;48.336;14.322;2023-11-21T02:39:19;1.83;;;1.30;;
2494;SDS011;1258;48.336;14.322;2023-11-21T02:41:48;2.77;;;1.63;;
2494;SDS011;1258;48.336;14.322;2023-11-21T02:44:15;2.93;;;2.40;;
2494;SDS011;1258;48.336;14.322;2023-11-21T02:46:42;4.10;;;3.00;;
2494;SDS011;1258;48.336;14.322;2023-11-21T02:49:09;4.57;;;4.00;;
2494;SDS011;1258;48.336;14.322;2023-11-21T02:51:37;6.60;;;4.60;;
2494;SDS011;1258;48.336;14.322;2023-11-21T02:54:05;6.10;;;5.50;;
2494;SDS011;1258;48.336;14.322;2023-11-21T02:56:33;8.27;;;7.43;;
2494;SDS011;1258;48.336;14.322;2023-11-21T02:59:01;14.07;;;9.67;;
2494;SDS011;1258;48.336;14.322;2023-11-21T03:01:30;10.10;;;7.50;;
2494;SDS011;1258;48.336;14.322;2023-11-21T03:03:57;9.83;;;7.10;;
2494;SDS011;1258;48.336;14.322;2023-11-21T03:06:25;8.00;;;5.53;;
2494;SDS011;1258;48.336;14.322;2023-11-21T03:08:52;5.33;;;4.13;;
2494;SDS011;1258;48.336;14.322;2023-11-21T03:11:19;5.37;;;3.17;;
2494;SDS011;1258;48.336;14.322;2023-11-21T03:13:46;3.17;;;2.70;;
2494;SDS011;1258;48.336;14.322;2023-11-21T03:16:15;2.73;;;2.10;;
2494;SDS011;1258;48.336;14.322;2023-11-21T03:18:42;3.17;;;1.87;;
2494;SDS011;1258;48.336;14.322;2023-11-21T03:21:09;2.40;;;1.90;;
2494;SDS011;1258;48.336;14.322;2023-11-21T03:23:37;4.27;;;2.13;;
2494;SDS011;1258;48.336;14.322;2023-11-21T03:26:05;2.50;;;2.00;;
2494;SDS011;1258;48.336;14.322;2023-11-21T03:28:33;2.20;;;1.57;;
2494;SDS011;1258;48.336;14.322;2023-11-21T03:31:00;2.30;;;1.97;;
2494;SDS011;1258;48.336;14.322;2023-11-21T03:33:29;3.67;;;1.50;;
2494;SDS011;1258;48.336;14.322;2023-11-21T03:35:56;2.70;;;1.80;;
2494;SDS011;1258;48.336;14.322;2023-11-21T03:38:23;2.20;;;1.40;;
2494;SDS011;1258;48.336;14.322;2023-11-21T03:40:50;2.40;;;1.60;;
2494;SDS011;1258;48.336;14.322;2023-11-21T03:43:18;2.83;;;1.67;;
2494;SDS011;1258;48.336;14.322;2023-11-21T03:45:45;2.63;;;1.83;;
2494;SDS011;1258;48.336;14.322;2023-11-21T03:48:12;3.00;;;1.53;;
2494;SDS011;1258;48.336;14.322;2023-11-21T03:50:41;3.73;;;1.73;;
2494;SDS011;1258;48.336;14.322;2023-11-21T03:53:08;2.23;;;1.77;;
2494;SDS011;1258;48.336;14.322;2023-11-21T03:55:35;4.87;;;2.00;;
2494;SDS011;1258;48.336;14.322;2023-11-21T03:58:02;2.23;;;1.60;;
2494;SDS011;1258;48.336;14.322;2023-11-21T04:00:29;2.10;;;1.40;;
2494;SDS011;1258;48.336;14.322;2023-11-21T04:02:56;3.27;;;1.80;;
2494;SDS011;1258;48.336;14.322;2023-11-21T04:05:24;2.87;;;1.93;;
2494;SDS011;1258;48.336;14.322;2023-11-21T04:07:52;2.70;;;1.70;;
2494;SDS011;1258;48.336;14.322;2023-11-21T04:10:19;2.47;;;1.73;;
2494;SDS011;1258;48.336;14.322;2023-11-21T04:12:47;3.17;;;2.27;;
2494;SDS011;1258;48.336;14.322;2023-11-21T04:15:14;2.60;;;1.90;;
2494;SDS011;1258;48.336;14.322;2023-11-21T04:17:42;3.43;;;2.30;;
2494;SDS011;1258;48.336;14.322;2023-11-21T04:20:10;3.30;;;2.27;;
2494;SDS011;1258;48.336;14.322;2023-11-21T04:22:38;3.07;;;2.73;;
2494;SDS011;1258;48.336;14.322;2023-11-21T04:25:10;4.57;;;2.70;;
2494;SDS011;1258;48.336;14.322;2023-11-21T04:27:38;2.43;;;2.00;;
2494;SDS011;1258;48.336;14.322;2023-11-21T04:30:06;2.57;;;1.90;;
2494;SDS011;1258;48.336;14.322;2023-11-21T04:32:35;4.30;;;2.27;;
2494;SDS011;1258;48.336;14.322;2023-11-21T04:35:02;3.13;;;2.43;;
2494;SDS011;1258;48.336;14.322;2023-11-21T04:37:29;2.47;;;1.87;;
2494;SDS011;1258;48.336;14.322;2023-11-21T04:39:56;2.47;;;2.27;;
2494;SDS011;1258;48.336;14.322;2023-11-21T04:42:25;3.33;;;2.23;;
2494;SDS011;1258;48.336;14.322;2023-11-21T04:44:52;3.07;;;2.20;;
2494;SDS011;1258;48.336;14.322;2023-11-21T04:47:19;3.63;;;2.73;;
2494;SDS011;1258;48.336;14.322;2023-11-21T04:49:47;2.83;;;2.20;;
2494;SDS011;1258;48.336;14.322;2023-11-21T04:52:14;3.20;;;2.33;;
2494;SDS011;1258;48.336;14.322;2023-11-21T04:54:41;4.00;;;2.50;;
2494;SDS011;1258;48.336;14.322;2023-11-21T04:57:08;3.70;;;2.30;;
2494;SDS011;1258;48.336;14.322;2023-11-21T04:59:37;2.77;;;2.37;;
2494;SDS011;1258;48.336;14.322;2023-11-21T05:02:04;4.97;;;2.30;;
2494;SDS011;1258;48.336;14.322;2023-11-21T05:04:31;2.70;;;2.33;;
2494;SDS011;1258;48.336;14.322;2023-11-21T05:06:58;2.20;;;1.90;;
2494;SDS011;1258;48.336;14.322;2023-11-21T05:09:26;2.83;;;2.03;;
2494;SDS011;1258;48.336;14.322;2023-11-21T05:11:57;2.63;;;2.00;;
2494;SDS011;1258;48.336;14.322;2023-11-21T05:14:25;3.53;;;1.70;;
2494;SDS011;1258;48.336;14.322;2023-11-21T05:16:53;2.63;;;1.83;;
2494;SDS011;1258;48.336;14.322;2023-11-21T05:19:20;3.00;;;1.93;;
2494;SDS011;1258;48.336;14.322;2023-11-21T05:21:47;2.70;;;1.67;;
2494;SDS011;1258;48.336;14.322;2023-11-21T05:24:15;4.13;;;2.37;;
2494;SDS011;1258;48.336;14.322;2023-11-21T05:26:42;2.47;;;2.20;;
2494;SDS011;1258;48.336;14.322;2023-11-21T05:29:09;2.27;;;1.47;;
2494;SDS011;1258;48.336;14.322;2023-11-21T05:31:36;2.47;;;1.90;;
2494;SDS011;1258;48.336;14.322;2023-11-21T05:34:04;2.17;;;1.93;;
2494;SDS011;1258;48.336;14.322;2023-11-21T05:36:31;3.87;;;2.00;;
2494;SDS011;1258;48.336;14.322;2023-11-21T05:38:58;2.77;;;2.07;;
2494;SDS011;1258;48.336;14.322;2023-11-21T05:41:25;2.37;;;1.83;;
2494;SDS011;1258;48.336;14.322;2023-11-21T05:43:52;2.40;;;1.83;;
2494;SDS011;1258;48.336;14.322;2023-11-21T05:46:19;2.23;;;1.67;;
2494;SDS011;1258;48.336;14.322;2023-11-21T05:48:47;2.93;;;1.80;;
2494;SDS011;1258;48.336;14.322;2023-11-21T05:51:15;2.47;;;1.90;;
2494;SDS011;1258;48.336;14.322;2023-11-21T05:53:42;2.00;;;1.47;;
2494;SDS011;1258;48.336;14.322;2023-11-21T05:56:09;1.73;;;1.33;;
2494;SDS011;1258;48.336;14.322;2023-11-21T05:58:36;1.93;;;1.30;;
2494;SDS011;1258;48.336;14.322;2023-11-21T06:01:05;1.80;;;1.40;;
2494;SDS011;1258;48.336;14.322;2023-11-21T06:03:34;2.17;;;1.60;;
2494;SDS011;1258;48.336;14.322;2023-11-21T06:06:01;3.43;;;1.50;;
2494;SDS011;1258;48.336;14.322;2023-11-21T06:08:30;2.23;;;1.70;;
2494;SDS011;1258;48.336;14.322;2023-11-21T06:10:57;2.93;;;1.90;;
2494;SDS011;1258;48.336;14.322;2023-11-21T06:13:25;2.90;;;1.50;;
2494;SDS011;1258;48.336;14.322;2023-11-21T06:15:52;3.70;;;1.97;;
2494;SDS011;1258;48.336;14.322;2023-11-21T06:18:19;2.77;;;1.90;;
2494;SDS011;1258;48.336;14.322;2023-11-21T06:20:46;2.60;;;1.83;;
2494;SDS011;1258;48.336;14.322;2023-11-21T06:23:13;2.20;;;1.97;;
2494;SDS011;1258;48.336;14.322;2023-11-21T06:25:42;2.47;;;2.00;;
2494;SDS011;1258;48.336;14.322;2023-11-21T06:28:09;3.20;;;2.43;;
2494;SDS011;1258;48.336;14.322;2023-11-21T06:30:37;4.03;;;3.10;;
2494;SDS011;1258;48.336;14.322;2023-11-21T06:33:04;4.37;;;3.90;;
2494;SDS011;1258;48.336;14.322;2023-11-21T06:35:31;4.07;;;3.20;;
2494;SDS011;1258;48.336;14.322;2023-11-21T06:38:00;4.40;;;3.37;;
2494;SDS011;1258;48.336;14.322;2023-11-21T06:40:28;3.47;;;2.90;;
2494;SDS011;1258;48.336;14.322;2023-11-21T06:42:56;4.20;;;3.57;;
2494;SDS011;1258;48.336;14.322;2023-11-21T06:45:25;3.03;;;2.73;;
2494;SDS011;1258;48.336;14.322;2023-11-21T06:47:52;2.60;;;2.30;;
2494;SDS011;1258;48.336;14.322;2023-11-21T06:50:20;4.47;;;2.83;;
2494;SDS011;1258;48.336;14.322;2023-11-21T06:52:47;2.90;;;2.40;;
2494;SDS011;1258;48.336;14.322;2023-11-21T06:55:14;3.67;;;2.70;;
2494;SDS011;1258;48.336;14.322;2023-11-21T06:57:42;2.47;;;2.20;;
2494;SDS011;1258;48.336;14.322;2023-11-21T07:00:11;2.90;;;2.20;;
2494;SDS011;1258;48.336;14.322;2023-11-21T07:02:40;2.20;;;2.00;;
2494;SDS011;1258;48.336;14.322;2023-11-21T07:05:07;2.27;;;2.07;;
2494;SDS011;1258;48.336;14.322;2023-11-21T07:07:34;2.13;;;1.50;;
2494;SDS011;1258;48.336;14.322;2023-11-21T07:10:02;1.97;;;1.30;;
2494;SDS011;1258;48.336;14.322;2023-11-21T07:12:30;2.00;;;1.40;;
2494;SDS011;1258;48.336;14.322;2023-11-21T07:14:57;2.40;;;1.40;;
2494;SDS011;1258;48.336;14.322;2023-11-21T07:17:26;2.50;;;1.20;;
2494;SDS011;1258;48.336;14.322;2023-11-21T07:19:53;2.00;;;1.60;;
2494;SDS011;1258;48.336;14.322;2023-11-21T07:22:20;2.00;;;1.47;;
2494;SDS011;1258;48.336;14.322;2023-11-21T07:24:48;2.17;;;1.73;;
2494;SDS011;1258;48.336;14.322;2023-11-21T07:27:16;2.77;;;1.87;;
2494;SDS011;1258;48.336;14.322;2023-11-21T07:29:43;1.97;;;1.77;;
2494;SDS011;1258;48.336;14.322;2023-11-21T07:32:10;2.43;;;1.80;;
2494;SDS011;1258;48.336;14.322;2023-11-21T07:34:39;3.37;;;2.43;;
2494;SDS011;1258;48.336;14.322;2023-11-21T07:37:06;2.67;;;1.70;;
2494;SDS011;1258;48.336;14.322;2023-11-21T07:39:34;1.80;;;1.40;;
2494;SDS011;1258;48.336;14.322;2023-11-21T07:42:01;2.50;;;1.90;;
2494;SDS011;1258;48.336;14.322;2023-11-21T07:44:29;1.83;;;1.40;;
2494;SDS011;1258;48.336;14.322;2023-11-21T07:46:56;2.70;;;1.63;;
2494;SDS011;1258;48.336;14.322;2023-11-21T07:49:23;2.60;;;2.07;;
2494;SDS011;1258;48.336;14.322;2023-11-21T07:51:53;2.00;;;1.33;;
2494;SDS011;1258;48.336;14.322;2023-11-21T07:54:20;3.40;;;2.10;;
2494;SDS011;1258;48.336;14.322;2023-11-21T07:56:47;2.93;;;2.10;;
2494;SDS011;1258;48.336;14.322;2023-11-21T07:59:14;2.20;;;1.73;;
2494;SDS011;1258;48.336;14.322;2023-11-21T08:01:43;2.47;;;1.60;;
2494;SDS011;1258;48.336;14.322;2023-11-21T08:04:11;2.43;;;1.87;;
2494;SDS011;1258;48.336;14.322;2023-11-21T08:06:38;2.83;;;1.83;;
2494;SDS011;1258;48.336;14.322;2023-11-21T08:09:08;2.80;;;1.67;;
2494;SDS011;1258;48.336;14.322;2023-11-21T08:11:37;1.63;;;1.50;;
2494;SDS011;1258;48.336;14.322;2023-11-21T08:14:05;2.10;;;1.50;;
2494;SDS011;1258;48.336;14.322;2023-11-21T08:16:32;1.87;;;1.43;;
2494;SDS011;1258;48.336;14.322;2023-11-21T08:18:58;4.70;;;1.67;;
2494;SDS011;1258;48.336;14.322;2023-11-21T08:21:26;2.07;;;1.73;;
2494;SDS011;1258;48.336;14.322;2023-11-21T08:23:54;1.77;;;1.40;;
2494;SDS011;1258;48.336;14.322;2023-11-21T08:26:23;1.90;;;1.30;;
2494;SDS011;1258;48.336;14.322;2023-11-21T08:28:50;2.40;;;1.60;;
2494;SDS011;1258;48.336;14.322;2023-11-21T08:31:23;1.50;;;1.33;;
2494;SDS011;1258;48.336;14.322;2023-11-21T08:33:51;2.23;;;1.30;;
2494;SDS011;1258;48.336;14.322;2023-11-21T08:36:20;1.63;;;1.37;;
2494;SDS011;1258;48.336;14.322;2023-11-21T08:38:48;2.03;;;1.20;;
2494;SDS011;1258;48.336;14.322;2023-11-21T08:41:17;1.90;;;1.30;;
2494;SDS011;1258;48.336;14.322;2023-11-21T08:43:47;3.10;;;1.97;;
2494;SDS011;1258;48.336;14.322;2023-11-21T08:46:15;2.73;;;1.60;;
2494;SDS011;1258;48.336;14.322;2023-11-21T08:48:43;1.60;;;1.23;;
2494;SDS011;1258;48.336;14.322;2023-11-21T08:51:10;1.87;;;1.40;;
2494;SDS011;1258;48.336;14.322;2023-11-21T08:53:39;2.33;;;1.57;;
2494;SDS011;1258;48.336;14.322;2023-11-21T08:56:06;2.20;;;1.77;;
2494;SDS011;1258;48.336;14.322;2023-11-21T08:58:35;2.40;;;1.87;;
2494;SDS011;1258;48.336;14.322;2023-11-21T09:01:05;2.70;;;1.63;;
2494;SDS011;1258;48.336;14.322;2023-11-21T09:03:32;2.53;;;1.87;;
2494;SDS011;1258;48.336;14.322;2023-11-21T09:05:59;2.20;;;1.80;;
2494;SDS011;1258;48.336;14.322;2023-11-21T09:08:27;2.60;;;2.20;;
2494;SDS011;1258;48.336;14.322;2023-11-21T09:10:54;2.70;;;2.40;;
2494;SDS011;1258;48.336;14.322;2023-11-21T09:13:22;2.53;;;1.73;;
2494;SDS011;1258;48.336;14.322;2023-11-21T09:15:50;2.10;;;1.70;;
2494;SDS011;1258;48.336;14.322;2023-11-21T09:18:20;2.60;;;1.90;;
2494;SDS011;1258;48.336;14.322;2023-11-21T09:20:47;3.87;;;1.80;;
2494;SDS011;1258;48.336;14.322;2023-11-21T09:23:14;2.30;;;1.90;;
2494;SDS011;1258;48.336;14.322;2023-11-21T09:25:41;2.40;;;2.17;;
2494;SDS011;1258;48.336;14.322;2023-11-21T09:28:11;2.67;;;2.17;;
2494;SDS011;1258;48.336;14.322;2023-11-21T09:30:38;3.70;;;2.30;;
2494;SDS011;1258;48.336;14.322;2023-11-21T09:33:05;2.70;;;1.90;;
2494;SDS011;1258;48.336;14.322;2023-11-21T09:35:37;2.17;;;1.87;;
2494;SDS011;1258;48.336;14.322;2023-11-21T09:38:04;2.20;;;1.80;;
2494;SDS011;1258;48.336;14.322;2023-11-21T09:40:35;2.07;;;1.50;;
2494;SDS011;1258;48.336;14.322;2023-11-21T09:43:05;2.10;;;1.50;;
2494;SDS011;1258;48.336;14.322;2023-11-21T09:45:41;2.40;;;1.87;;
2494;SDS011;1258;48.336;14.322;2023-11-21T09:48:12;2.90;;;2.30;;
2494;SDS011;1258;48.336;14.322;2023-11-21T09:50:43;3.20;;;2.13;;
2494;SDS011;1258;48.336;14.322;2023-11-21T09:53:13;2.53;;;1.93;;
2494;SDS011;1258;48.336;14.322;2023-11-21T09:55:44;2.97;;;2.67;;
2494;SDS011;1258;48.336;14.322;2023-11-21T09:58:13;3.00;;;2.50;;
2494;SDS011;1258;48.336;14.322;2023-11-21T10:00:40;2.63;;;2.17;;
2494;SDS011;1258;48.336;14.322;2023-11-21T10:03:08;2.50;;;1.90;;
2494;SDS011;1258;48.336;14.322;2023-11-21T10:05:36;2.37;;;2.00;;
2494;SDS011;1258;48.336;14.322;2023-11-21T10:08:07;3.10;;;2.80;;
2494;SDS011;1258;48.336;14.322;2023-11-21T10:10:35;4.37;;;2.97;;
2494;SDS011;1258;48.336;14.322;2023-11-21T10:13:04;4.30;;;2.87;;
2494;SDS011;1258;48.336;14.322;2023-11-21T10:15:33;4.27;;;3.27;;
2494;SDS011;1258;48.336;14.322;2023-11-21T10:18:04;3.47;;;3.17;;
2494;SDS011;1258;48.336;14.322;2023-11-21T10:20:34;4.00;;;3.30;;
2494;SDS011;1258;48.336;14.322;2023-11-21T10:23:03;3.67;;;3.33;;
2494;SDS011;1258;48.336;14.322;2023-11-21T10:25:34;4.67;;;3.80;;
2494;SDS011;1258;48.336;14.322;2023-11-21T10:28:02;4.23;;;3.00;;
2494;SDS011;1258;48.336;14.322;2023-11-21T10:30:32;3.20;;;2.87;;
2494;SDS011;1258;48.336;14.322;2023-11-21T10:33:02;4.00;;;2.87;;
2494;SDS011;1258;48.336;14.322;2023-11-21T10:35:45;3.90;;;3.10;;
2494;SDS011;1258;48.336;14.322;2023-11-21T10:38:16;2.83;;;2.53;;
2494;SDS011;1258;48.336;14.322;2023-11-21T10:40:44;3.17;;;2.70;;
2494;SDS011;1258;48.336;14.322;2023-11-21T10:43:13;3.07;;;2.57;;
2494;SDS011;1258;48.336;14.322;2023-11-21T10:45:41;4.60;;;2.63;;
2494;SDS011;1258;48.336;14.322;2023-11-21T10:48:10;3.40;;;3.10;;
2494;SDS011;1258;48.336;14.322;2023-11-21T10:50:40;2.40;;;2.10;;
2494;SDS011;1258;48.336;14.322;2023-11-21T10:53:09;3.43;;;2.17;;
2494;SDS011;1258;48.336;14.322;2023-11-21T10:55:38;4.00;;;2.10;;
2494;SDS011;1258;48.336;14.322;2023-11-21T10:58:07;3.97;;;2.60;;
2494;SDS011;1258;48.336;14.322;2023-11-21T11:00:38;2.70;;;2.20;;
2494;SDS011;1258;48.336;14.322;2023-11-21T11:03:08;3.70;;;2.70;;
2494;SDS011;1258;48.336;14.322;2023-11-21T11:05:39;4.43;;;3.10;;
2494;SDS011;1258;48.336;14.322;2023-11-21T11:08:11;3.07;;;2.30;;
2494;SDS011;1258;48.336;14.322;2023-11-21T11:10:44;2.93;;;2.40;;
2494;SDS011;1258;48.336;14.322;2023-11-21T11:13:14;2.03;;;1.80;;
2494;SDS011;1258;48.336;14.322;2023-11-21T11:15:42;2.73;;;2.30;;
2494;SDS011;1258;48.336;14.322;2023-11-21T11:18:13;2.03;;;1.73;;
2494;SDS011;1258;48.336;14.322;2023-11-21T11:20:43;3.13;;;2.40;;
2494;SDS011;1258;48.336;14.322;2023-11-21T11:23:20;2.67;;;2.20;;
2494;SDS011;1258;48.336;14.322;2023-11-21T11:26:07;2.57;;;1.93;;
2494;SDS011;1258;48.336;14.322;2023-11-21T11:28:44;3.27;;;2.00;;
2494;SDS011;1258;48.336;14.322;2023-11-21T11:31:21;1.90;;;1.70;;
2494;SDS011;1258;48.336;14.322;2023-11-21T11:34:01;1.90;;;1.70;;
2494;SDS011;1258;48.336;14.322;2023-11-21T11:36:40;2.07;;;1.70;;
2494;SDS011;1258;48.336;14.322;2023-11-21T11:39:29;2.53;;;1.73;;
2494;SDS011;1258;48.336;14.322;2023-11-21T11:41:57;2.37;;;2.03;;
2494;SDS011;1258;48.336;14.322;2023-11-21T11:47:21;2.53;;;1.80;;
2494;SDS011;1258;48.336;14.322;2023-11-21T11:50:01;2.23;;;1.70;;
2494;SDS011;1258;48.336;14.322;2023-11-21T11:52:37;2.10;;;1.73;;
2494;SDS011;1258;48.336;14.322;2023-11-21T11:55:06;1.70;;;1.50;;
2494;SDS011;1258;48.336;14.322;2023-11-21T11:57:36;1.80;;;1.50;;
2494;SDS011;1258;48.336;14.322;2023-11-21T12:00:16;2.30;;;1.90;;
2494;SDS011;1258;48.336;14.322;2023-11-21T12:02:50;3.43;;;1.97;;
2494;SDS011;1258;48.336;14.322;2023-11-21T12:05:19;2.13;;;1.93;;
2494;SDS011;1258;48.336;14.322;2023-11-21T12:07:49;2.30;;;1.80;;
2494;SDS011;1258;48.336;14.322;2023-11-21T12:10:19;1.80;;;1.60;;
2494;SDS011;1258;48.336;14.322;2023-11-21T12:12:50;1.93;;;1.50;;
2494;SDS011;1258;48.336;14.322;2023-11-21T12:15:20;1.87;;;1.60;;
2494;SDS011;1258;48.336;14.322;2023-11-21T12:17:47;1.63;;;1.30;;
2494;SDS011;1258;48.336;14.322;2023-11-21T12:20:16;2.73;;;1.40;;
2494;SDS011;1258;48.336;14.322;2023-11-21T12:22:46;2.37;;;1.20;;
2494;SDS011;1258;48.336;14.322;2023-11-21T12:25:14;2.60;;;1.50;;
2494;SDS011;1258;48.336;14.322;2023-11-21T12:27:44;2.13;;;1.70;;
2494;SDS011;1258;48.336;14.322;2023-11-21T12:30:13;1.97;;;1.63;;
2494;SDS011;1258;48.336;14.322;2023-11-21T12:32:42;2.33;;;2.00;;
2494;SDS011;1258;48.336;14.322;2023-11-21T12:35:11;2.43;;;1.87;;
2494;SDS011;1258;48.336;14.322;2023-11-21T12:37:39;1.93;;;1.70;;
2494;SDS011;1258;48.336;14.322;2023-11-21T12:40:09;2.63;;;1.50;;
2494;SDS011;1258;48.336;14.322;2023-11-21T12:42:39;2.10;;;1.90;;
2494;SDS011;1258;48.336;14.322;2023-11-21T12:45:08;2.17;;;1.57;;
2494;SDS011;1258;48.336;14.322;2023-11-21T12:47:40;2.33;;;1.40;;
2494;SDS011;1258;48.336;14.322;2023-11-21T12:50:10;2.07;;;1.73;;
2494;SDS011;1258;48.336;14.322;2023-11-21T12:52:42;2.10;;;1.67;;
2494;SDS011;1258;48.336;14.322;2023-11-21T12:55:13;2.30;;;1.90;;
2494;SDS011;1258;48.336;14.322;2023-11-21T12:57:42;2.27;;;1.83;;
2494;SDS011;1258;48.336;14.322;2023-11-21T13:00:11;2.13;;;1.80;;
2494;SDS011;1258;48.336;14.322;2023-11-21T13:02:53;1.97;;;1.60;;
2494;SDS011;1258;48.336;14.322;2023-11-21T13:05:28;2.20;;;1.77;;
2494;SDS011;1258;48.336;14.322;2023-11-21T13:07:57;2.70;;;2.03;;
2494;SDS011;1258;48.336;14.322;2023-11-21T13:10:28;2.40;;;1.90;;
2494;SDS011;1258;48.336;14.322;2023-11-21T13:12:56;2.10;;;1.90;;
2494;SDS011;1258;48.336;14.322;2023-11-21T13:15:25;1.80;;;1.57;;
2494;SDS011;1258;48.336;14.322;2023-11-21T13:17:54;2.20;;;2.00;;
2494;SDS011;1258;48.336;14.322;2023-11-21T13:20:22;2.00;;;1.67;;
2494;SDS011;1258;48.336;14.322;2023-11-21T13:22:51;2.37;;;1.50;;
2494;SDS011;1258;48.336;14.322;2023-11-21T13:25:22;2.17;;;1.97;;
2494;SDS011;1258;48.336;14.322;2023-11-21T13:27:52;2.23;;;1.63;;
2494;SDS011;1258;48.336;14.322;2023-11-21T13:30:19;3.07;;;1.70;;
2494;SDS011;1258;48.336;14.322;2023-11-21T13:32:51;2.10;;;1.40;;
2494;SDS011;1258;48.336;14.322;2023-11-21T13:35:23;1.93;;;1.63;;
2494;SDS011;1258;48.336;14.322;2023-11-21T13:38:03;2.27;;;1.50;;
2494;SDS011;1258;48.336;14.322;2023-11-21T13:40:33;1.43;;;1.17;;
2494;SDS011;1258;48.336;14.322;2023-11-21T13:43:07;2.53;;;1.70;;
2494;SDS011;1258;48.336;14.322;2023-11-21T13:45:36;2.23;;;1.60;;
2494;SDS011;1258;48.336;14.322;2023-11-21T13:48:04;1.80;;;1.57;;
2494;SDS011;1258;48.336;14.322;2023-11-21T13:50:37;1.70;;;1.20;;
2494;SDS011;1258;48.336;14.322;2023-11-21T13:53:04;1.70;;;1.20;;
2494;SDS011;1258;48.336;14.322;2023-11-21T13:55:43;1.90;;;1.47;;
2494;SDS011;1258;48.336;14.322;2023-11-21T13:58:11;1.97;;;1.33;;
2494;SDS011;1258;48.336;14.322;2023-11-21T14:00:44;1.60;;;1.13;;
2494;SDS011;1258;48.336;14.322;2023-11-21T14:03:12;1.50;;;1.23;;
2494;SDS011;1258;48.336;14.322;2023-11-21T14:05:47;2.53;;;1.70;;
2494;SDS011;1258;48.336;14.322;2023-11-21T14:08:16;2.13;;;1.77;;
2494;SDS011;1258;48.336;14.322;2023-11-21T14:10:46;2.20;;;1.60;;
2494;SDS011;1258;48.336;14.322;2023-11-21T14:13:16;2.10;;;1.83;;
2494;SDS011;1258;48.336;14.322;2023-11-21T14:15:44;2.50;;;1.50;;
2494;SDS011;1258;48.336;14.322;2023-11-21T14:18:16;1.80;;;1.60;;
2494;SDS011;1258;48.336;14.322;2023-11-21T14:20:52;2.20;;;1.93;;
2494;SDS011;1258;48.336;14.322;2023-11-21T14:23:20;1.93;;;1.73;;
2494;SDS011;1258;48.336;14.322;2023-11-21T14:25:48;1.80;;;1.50;;
2494;SDS011;1258;48.336;14.322;2023-11-21T14:28:16;1.70;;;1.40;;
2494;SDS011;1258;48.336;14.322;2023-11-21T14:30:44;2.10;;;1.50;;
2494;SDS011;1258;48.336;14.322;2023-11-21T14:33:11;1.60;;;1.30;;
2494;SDS011;1258;48.336;14.322;2023-11-21T14:35:39;2.20;;;1.70;;
2494;SDS011;1258;48.336;14.322;2023-11-21T14:38:07;2.00;;;1.77;;
2494;SDS011;1258;48.336;14.322;2023-11-21T14:40:35;4.37;;;1.90;;
2494;SDS011;1258;48.336;14.322;2023-11-21T14:43:02;2.27;;;1.70;;
2494;SDS011;1258;48.336;14.322;2023-11-21T14:45:31;2.10;;;1.90;;
2494;SDS011;1258;48.336;14.322;2023-11-21T14:47:59;2.03;;;1.73;;
2494;SDS011;1258;48.336;14.322;2023-11-21T14:50:33;1.90;;;1.30;;
2494;SDS011;1258;48.336;14.322;2023-11-21T14:53:10;3.00;;;1.53;;
2494;SDS011;1258;48.336;14.322;2023-11-21T14:55:38;1.83;;;1.43;;
2494;SDS011;1258;48.336;14.322;2023-11-21T14:58:22;1.80;;;1.50;;
2494;SDS011;1258;48.336;14.322;2023-11-21T15:00:53;2.50;;;1.57;;
2494;SDS011;1258;48.336;14.322;2023-11-21T15:03:23;2.27;;;2.07;;
2494;SDS011;1258;48.336;14.322;2023-11-21T15:06:08;1.90;;;1.50;;
2494;SDS011;1258;48.336;14.322;2023-11-21T15:08:54;2.37;;;1.77;;
2494;SDS011;1258;48.336;14.322;2023-11-21T15:11:45;2.07;;;1.87;;
2494;SDS011;1258;48.336;14.322;2023-11-21T15:14:12;2.13;;;1.70;;